METAR Data
IDs: Format: Raw Decoded Include TAF

Data at: 0701 UTC 18 Sep 2021

LIPI 180555Z 04007KT 9999 FEW050 BKN060 19/13 Q1013 RMK BKN VIS MIN 9999 WIND THR06 08006KT WIND THR24 06007KT BLU